Time;durP1;ratioP1;P1;durP2;ratioP2;P2;SDS_P1;SDS_P2;PMS_P1;PMS_P2;Temp;Humidity;BMP_temperature;BMP_pressure;BME280_temperature;BME280_humidity;BME280_pressure;Samples;Min_cycle;Max_cycle;Signal;HPM_P1;HPM_P2
2022/10/21 00:01:49;;;;;;;;;;;18.40;1.00;;;;;;5033195;28;19964;-56
2022/10/21 00:04:16;;;;;;;;;;;18.40;1.00;;;;;;5033290;28;19921;-54
2022/10/21 00:06:43;;;;;;;;;;;18.40;1.00;;;;;;5033495;28;19920;-50
2022/10/21 00:09:09;;;;;;;;;;;18.40;1.00;;;;;;5033433;28;19921;-49
2022/10/21 00:11:36;;;;;;;;;;;18.40;1.00;;;;;;5033210;28;19928;-55
2022/10/21 00:14:03;;;;;;;;;;;18.30;1.00;;;;;;5033344;28;19928;-51
2022/10/21 00:16:30;;;;;;;;;;;18.40;1.00;;;;;;5033129;28;19925;-50
2022/10/21 00:18:56;;;;;;;;;;;18.30;1.00;;;;;;5033251;28;19921;-48
2022/10/21 00:21:23;;;;;;;;;;;18.30;1.00;;;;;;5033334;28;19982;-50
2022/10/21 00:23:50;;;;;;;;;;;18.30;1.00;;;;;;5032859;28;19927;-52
2022/10/21 00:26:17;;;;;;;;;;;18.30;1.00;;;;;;5032961;28;19967;-54
2022/10/21 00:28:44;;;;;;;;;;;18.30;1.00;;;;;;5033000;28;20355;-54
2022/10/21 00:31:12;;;;;;;;;;;18.30;1.00;;;;;;5033185;28;19928;-48
2022/10/21 00:33:38;;;;;;;;;;;18.30;1.00;;;;;;5033139;28;20390;-51
2022/10/21 00:36:13;;;;;;;;;;;18.30;1.00;;;;;;5033116;28;19932;-49
2022/10/21 00:38:41;;;;;;;;;;;18.30;1.00;;;;;;5033006;28;20295;-52
2022/10/21 00:41:08;;;;;;;;;;;18.30;1.00;;;;;;5033191;28;20028;-49
2022/10/21 00:43:53;;;;;;;;;;;18.30;1.00;;;;;;5032925;28;20410;-53
2022/10/21 00:46:24;;;;;;;;;;;18.30;1.00;;;;;;5033200;28;19959;-52
2022/10/21 00:48:55;;;;;;;;;;;18.30;1.00;;;;;;5033069;28;20301;-49
2022/10/21 00:51:23;;;;;;;;;;;18.30;1.00;;;;;;5033228;28;20432;-56
2022/10/21 00:53:50;;;;;;;;;;;18.30;1.00;;;;;;5036737;28;20019;-53
2022/10/21 00:56:22;;;;;;;;;;;18.30;1.00;;;;;;5036960;28;19927;-53
2022/10/21 00:58:50;;;;;;;;;;;18.30;1.00;;;;;;5036945;28;19929;-49
2022/10/21 01:01:17;;;;;;;;;;;18.30;1.00;;;;;;5037026;28;19974;-48
2022/10/21 01:03:48;;;;;;;;;;;18.30;1.00;;;;;;5036402;28;20271;-54
2022/10/21 01:06:15;;;;;;;;;;;18.20;1.00;;;;;;5036623;28;19944;-48
2022/10/21 01:08:42;;;;;;;;;;;18.20;1.00;;;;;;5036944;28;19975;-51
2022/10/21 01:11:11;;;;;;;;;;;18.20;1.00;;;;;;5036627;28;20008;-54
2022/10/21 01:13:38;;;;;;;;;;;18.20;1.00;;;;;;5036419;28;19928;-53
2022/10/21 01:16:05;;;;;;;;;;;18.20;1.00;;;;;;5036766;28;19921;-49
2022/10/21 01:18:50;;;;;;;;;;;18.20;1.00;;;;;;5036314;28;19921;-54
2022/10/21 01:21:29;;;;;;;;;;;18.20;1.00;;;;;;5036483;28;19925;-51
2022/10/21 01:23:56;;;;;;;;;;;18.20;1.00;;;;;;5036345;28;20298;-53
2022/10/21 01:26:58;;;;;;;;;;;18.20;1.00;;;;;;5036329;28;20007;-52
2022/10/21 01:29:28;;;;;;;;;;;18.20;1.00;;;;;;4994649;28;19964;-47
2022/10/21 01:31:57;;;;;;;;;;;18.20;1.00;;;;;;5028813;28;19921;-49
2022/10/21 01:34:36;;;;;;;;;;;18.20;1.00;;;;;;5036111;28;19928;-49
2022/10/21 01:37:09;;;;;;;;;;;18.20;1.00;;;;;;5036115;28;20478;-52
2022/10/21 01:39:44;;;;;;;;;;;18.20;1.00;;;;;;5036404;28;19928;-52
2022/10/21 01:42:31;;;;;;;;;;;18.20;1.00;;;;;;5036014;28;20352;-50
2022/10/21 01:45:05;;;;;;;;;;;18.20;1.00;;;;;;5035721;28;19927;-51
2022/10/21 01:47:33;;;;;;;;;;;18.20;1.00;;;;;;5035966;28;19921;-52
2022/10/21 01:50:15;;;;;;;;;;;18.10;1.00;;;;;;5035964;28;20037;-51
2022/10/21 01:52:43;;;;;;;;;;;18.10;1.00;;;;;;5035453;28;19921;-52
2022/10/21 01:55:12;;;;;;;;;;;18.10;1.00;;;;;;5035818;28;19928;-50
2022/10/21 01:57:41;;;;;;;;;;;18.10;1.00;;;;;;5035886;28;20397;-46
2022/10/21 02:00:08;;;;;;;;;;;18.10;1.00;;;;;;5035660;28;19983;-52
2022/10/21 02:02:37;;;;;;;;;;;18.10;1.00;;;;;;5035245;28;19932;-49
2022/10/21 02:05:08;;;;;;;;;;;18.10;1.00;;;;;;5035649;28;19931;-53
2022/10/21 02:07:35;;;;;;;;;;;18.10;1.00;;;;;;5035603;28;19931;-50
2022/10/21 02:10:02;;;;;;;;;;;18.10;1.00;;;;;;5035360;28;19960;-54
2022/10/21 02:12:30;;;;;;;;;;;18.10;1.00;;;;;;5035341;28;19921;-51
2022/10/21 02:14:59;;;;;;;;;;;18.10;1.00;;;;;;5035448;28;20291;-57
2022/10/21 02:17:26;;;;;;;;;;;18.10;1.00;;;;;;5035471;28;19931;-55
2022/10/21 02:19:53;;;;;;;;;;;18.10;1.00;;;;;;5035293;28;19921;-52
2022/10/21 02:22:21;;;;;;;;;;;18.10;1.00;;;;;;5035210;28;20382;-50
2022/10/21 02:24:56;;;;;;;;;;;18.00;1.00;;;;;;5035256;28;20295;-52
2022/10/21 02:27:23;;;;;;;;;;;18.00;1.00;;;;;;5035204;28;19932;-52
2022/10/21 02:29:52;;;;;;;;;;;18.00;1.00;;;;;;5035251;28;19979;-51
2022/10/21 02:32:19;;;;;;;;;;;18.00;1.00;;;;;;5034752;28;19925;-55
2022/10/21 02:34:55;;;;;;;;;;;18.00;1.00;;;;;;5035013;28;20379;-58
2022/10/21 02:37:51;;;;;;;;;;;18.00;1.00;;;;;;5035045;28;19920;-54
2022/10/21 02:40:25;;;;;;;;;;;18.00;1.00;;;;;;5026028;28;19928;-53
2022/10/21 02:42:54;;;;;;;;;;;18.00;1.00;;;;;;5034816;28;20043;-56
2022/10/21 02:45:21;;;;;;;;;;;18.00;1.00;;;;;;5034834;28;19921;-54
2022/10/21 02:47:49;;;;;;;;;;;18.00;1.00;;;;;;5034883;28;19921;-51
2022/10/21 02:50:16;;;;;;;;;;;18.00;1.00;;;;;;5034541;28;19936;-57
2022/10/21 02:52:42;;;;;;;;;;;18.00;1.00;;;;;;5034478;28;19921;-54
2022/10/21 02:55:09;;;;;;;;;;;18.00;1.00;;;;;;5034586;28;19943;-48
2022/10/21 02:57:36;;;;;;;;;;;18.00;1.00;;;;;;5034629;28;19921;-53
2022/10/21 03:00:04;;;;;;;;;;;18.00;1.00;;;;;;5034660;28;20363;-52
2022/10/21 03:02:31;;;;;;;;;;;18.00;1.00;;;;;;5034243;28;19921;-55
2022/10/21 03:04:57;;;;;;;;;;;18.00;1.00;;;;;;5034347;28;19925;-53
2022/10/21 03:07:24;;;;;;;;;;;18.00;1.00;;;;;;5034550;28;19967;-53
2022/10/21 03:09:51;;;;;;;;;;;17.90;1.00;;;;;;5034295;28;19968;-53
2022/10/21 03:12:17;;;;;;;;;;;17.90;1.00;;;;;;5034077;28;19924;-55
2022/10/21 03:14:44;;;;;;;;;;;17.90;1.00;;;;;;5033774;28;19924;-52
2022/10/21 03:17:11;;;;;;;;;;;17.90;1.00;;;;;;5034239;28;19921;-54
2022/10/21 03:19:37;;;;;;;;;;;17.90;1.00;;;;;;5034327;28;19921;-56
2022/10/21 03:22:04;;;;;;;;;;;17.90;1.00;;;;;;5033888;28;19936;-53
2022/10/21 03:24:31;;;;;;;;;;;17.90;1.00;;;;;;5034188;28;19921;-51
2022/10/21 03:26:58;;;;;;;;;;;17.90;1.00;;;;;;5034314;28;19928;-56
2022/10/21 03:29:24;;;;;;;;;;;17.90;1.00;;;;;;5034178;28;19982;-52
2022/10/21 03:31:51;;;;;;;;;;;17.90;1.00;;;;;;5033500;28;19975;-55
2022/10/21 03:34:18;;;;;;;;;;;17.90;1.00;;;;;;5033926;28;20367;-53
2022/10/21 03:36:45;;;;;;;;;;;17.90;1.00;;;;;;5033743;28;19921;-52
2022/10/21 03:39:11;;;;;;;;;;;17.90;1.00;;;;;;5033052;28;19921;-54
2022/10/21 03:41:38;;;;;;;;;;;17.90;1.00;;;;;;5032676;28;20375;-50
2022/10/21 03:44:05;;;;;;;;;;;17.90;1.00;;;;;;5032961;28;20362;-54
2022/10/21 03:46:32;;;;;;;;;;;17.90;1.00;;;;;;5031768;28;19920;-53
2022/10/21 03:48:58;;;;;;;;;;;17.90;1.00;;;;;;5032893;28;19928;-53
2022/10/21 03:51:31;;;;;;;;;;;17.90;1.00;;;;;;5032921;28;19928;-56
2022/10/21 03:53:57;;;;;;;;;;;17.90;1.00;;;;;;5032482;28;19928;-51
2022/10/21 03:56:24;;;;;;;;;;;17.90;1.00;;;;;;5032913;28;20003;-50
2022/10/21 03:58:51;;;;;;;;;;;17.90;1.00;;;;;;5032793;28;19921;-49
2022/10/21 04:01:25;;;;;;;;;;;17.90;1.00;;;;;;5033039;28;20326;-50
2022/10/21 04:03:52;;;;;;;;;;;17.90;1.00;;;;;;5032380;28;19921;-53
2022/10/21 04:06:18;;;;;;;;;;;17.90;1.00;;;;;;5032828;28;20474;-56
2022/10/21 04:08:45;;;;;;;;;;;17.90;1.00;;;;;;5032713;28;19921;-51
2022/10/21 04:11:12;;;;;;;;;;;17.90;1.00;;;;;;5027755;28;20336;-55
2022/10/21 04:13:38;;;;;;;;;;;17.90;1.00;;;;;;5019141;28;19976;-53
2022/10/21 04:16:07;;;;;;;;;;;17.80;1.00;;;;;;5012915;28;19956;-50
2022/10/21 04:18:34;;;;;;;;;;;17.80;1.00;;;;;;5013027;28;19952;-53
2022/10/21 04:21:00;;;;;;;;;;;17.80;1.00;;;;;;5020157;28;19927;-52
2022/10/21 04:23:27;;;;;;;;;;;17.80;1.00;;;;;;5012322;28;19979;-51
2022/10/21 04:25:54;;;;;;;;;;;17.80;1.00;;;;;;5015006;28;20496;-48
2022/10/21 04:28:20;;;;;;;;;;;17.90;1.00;;;;;;5032217;28;19931;-51
2022/10/21 04:30:50;;;;;;;;;;;17.90;1.00;;;;;;5032361;28;19960;-54
2022/10/21 04:33:17;;;;;;;;;;;17.90;1.00;;;;;;5031987;28;19925;-49
2022/10/21 04:35:44;;;;;;;;;;;17.80;1.00;;;;;;5032410;28;19921;-51
2022/10/21 04:38:11;;;;;;;;;;;17.80;1.00;;;;;;5027398;28;127650;-52
2022/10/21 04:40:37;;;;;;;;;;;17.80;1.00;;;;;;5032863;28;20070;-58
2022/10/21 04:43:04;;;;;;;;;;;17.80;1.00;;;;;;5032857;28;19930;-54
2022/10/21 04:45:31;;;;;;;;;;;17.80;1.00;;;;;;5033002;28;20020;-55
2022/10/21 04:47:57;;;;;;;;;;;17.80;1.00;;;;;;5032965;28;20363;-52
2022/10/21 04:50:24;;;;;;;;;;;17.80;1.00;;;;;;5032980;28;19927;-52
2022/10/21 04:52:51;;;;;;;;;;;17.80;1.00;;;;;;5026853;28;20295;-54
2022/10/21 04:55:18;;;;;;;;;;;17.80;1.00;;;;;;5032845;28;20539;-49
2022/10/21 04:57:46;;;;;;;;;;;17.80;1.00;;;;;;5033041;28;20359;-53
2022/10/21 05:00:13;;;;;;;;;;;17.80;1.00;;;;;;5032898;28;20367;-51
2022/10/21 05:02:39;;;;;;;;;;;17.80;1.00;;;;;;5032607;28;19992;-51
2022/10/21 05:05:07;;;;;;;;;;;17.80;1.00;;;;;;5032445;28;20436;-52
2022/10/21 05:07:34;;;;;;;;;;;17.80;1.00;;;;;;5032882;28;20326;-53
2022/10/21 05:10:00;;;;;;;;;;;17.80;1.00;;;;;;5032706;28;19988;-51
2022/10/21 05:12:27;;;;;;;;;;;17.80;1.00;;;;;;5032501;28;19929;-53
2022/10/21 05:14:54;;;;;;;;;;;17.80;1.00;;;;;;5032855;28;19935;-54
2022/10/21 05:17:20;;;;;;;;;;;17.80;1.00;;;;;;5032457;28;19940;-53
2022/10/21 05:19:47;;;;;;;;;;;17.80;1.00;;;;;;5032881;28;20688;-50
2022/10/21 05:22:14;;;;;;;;;;;17.80;1.00;;;;;;5032525;28;19921;-53
2022/10/21 05:24:40;;;;;;;;;;;17.80;1.00;;;;;;5032466;28;19951;-50
2022/10/21 05:27:07;;;;;;;;;;;17.80;1.00;;;;;;5032607;28;20387;-55
2022/10/21 05:29:34;;;;;;;;;;;17.80;1.00;;;;;;5032606;28;19921;-51
2022/10/21 05:32:00;;;;;;;;;;;17.80;1.00;;;;;;5032255;28;20345;-50
2022/10/21 05:34:27;;;;;;;;;;;17.80;1.00;;;;;;5032354;28;19925;-54
2022/10/21 05:36:54;;;;;;;;;;;17.80;1.00;;;;;;5032553;28;19975;-53
2022/10/21 05:39:21;;;;;;;;;;;17.80;1.00;;;;;;5035757;28;19927;-52
2022/10/21 05:41:47;;;;;;;;;;;17.80;1.00;;;;;;5035911;28;19931;-53
2022/10/21 05:44:14;;;;;;;;;;;17.80;1.00;;;;;;5036040;28;20288;-53
2022/10/21 05:46:41;;;;;;;;;;;17.80;1.00;;;;;;5035887;28;19943;-50
2022/10/21 05:49:07;;;;;;;;;;;17.80;1.00;;;;;;5035888;28;19921;-53
2022/10/21 05:51:34;;;;;;;;;;;17.80;1.00;;;;;;5035588;28;19925;-50
2022/10/21 05:54:02;;;;;;;;;;;17.80;1.00;;;;;;5035587;28;19928;-52
2022/10/21 05:56:29;;;;;;;;;;;17.80;1.00;;;;;;5035840;28;19921;-52
2022/10/21 05:58:56;;;;;;;;;;;17.80;1.00;;;;;;5035856;28;19921;-51
2022/10/21 06:01:23;;;;;;;;;;;17.80;1.00;;;;;;5035714;28;19947;-49
2022/10/21 06:03:49;;;;;;;;;;;17.80;1.00;;;;;;5035426;28;19965;-49
2022/10/21 06:06:16;;;;;;;;;;;17.80;1.00;;;;;;5035495;28;19924;-50
2022/10/21 06:08:43;;;;;;;;;;;17.80;1.00;;;;;;5035487;28;19963;-54
2022/10/21 06:11:15;;;;;;;;;;;17.80;1.00;;;;;;5035354;28;19921;-47
2022/10/21 06:13:42;;;;;;;;;;;17.80;1.00;;;;;;5035268;28;19921;-46
2022/10/21 06:16:09;;;;;;;;;;;17.80;1.00;;;;;;5035200;28;19920;-50
2022/10/21 06:18:36;;;;;;;;;;;17.80;1.00;;;;;;5035565;28;19925;-54
2022/10/21 06:21:03;;;;;;;;;;;17.80;1.00;;;;;;5035192;28;19921;-53
2022/10/21 06:23:30;;;;;;;;;;;17.80;1.00;;;;;;5034901;28;19921;-53
2022/10/21 06:26:04;;;;;;;;;;;17.80;1.00;;;;;;5035136;28;19925;-49
2022/10/21 06:28:32;;;;;;;;;;;17.80;1.00;;;;;;5035259;28;19921;-54
2022/10/21 06:30:59;;;;;;;;;;;17.80;1.00;;;;;;5034544;28;19956;-51
2022/10/21 06:33:26;;;;;;;;;;;17.80;1.00;;;;;;5032116;28;19924;-54
2022/10/21 06:35:53;;;;;;;;;;;17.80;1.00;;;;;;5028387;28;20371;-53
2022/10/21 06:38:20;;;;;;;;;;;17.80;1.00;;;;;;5029896;28;19953;-54
2022/10/21 06:40:47;;;;;;;;;;;17.80;1.00;;;;;;5031021;28;19972;-52
2022/10/21 06:43:14;;;;;;;;;;;17.80;1.00;;;;;;5030593;28;19975;-53
2022/10/21 06:45:41;;;;;;;;;;;17.80;1.00;;;;;;5034684;28;20024;-53
2022/10/21 06:48:08;;;;;;;;;;;17.80;1.00;;;;;;5034617;28;19928;-52
2022/10/21 06:50:36;;;;;;;;;;;17.80;1.00;;;;;;5033659;28;19971;-55
2022/10/21 06:53:02;;;;;;;;;;;17.80;1.00;;;;;;5034369;28;19967;-51
2022/10/21 06:55:29;;;;;;;;;;;17.80;1.00;;;;;;5034606;28;20040;-50
2022/10/21 06:57:57;;;;;;;;;;;17.80;1.00;;;;;;5034511;28;19921;-52
2022/10/21 07:00:24;;;;;;;;;;;17.80;1.00;;;;;;5034773;28;20271;-52
2022/10/21 07:02:51;;;;;;;;;;;17.80;1.00;;;;;;5034164;28;20322;-54
2022/10/21 07:05:17;;;;;;;;;;;17.70;1.00;;;;;;5034344;28;19921;-52
2022/10/21 07:07:44;;;;;;;;;;;17.70;1.00;;;;;;5034222;28;19921;-55
2022/10/21 07:10:11;;;;;;;;;;;17.70;1.00;;;;;;5034538;28;19920;-53
2022/10/21 07:12:38;;;;;;;;;;;17.70;1.00;;;;;;5033888;28;19944;-56
2022/10/21 07:15:05;;;;;;;;;;;17.70;1.00;;;;;;5034247;28;19928;-55
2022/10/21 07:17:32;;;;;;;;;;;17.70;1.00;;;;;;5034111;28;20024;-52
2022/10/21 07:19:59;;;;;;;;;;;17.70;1.00;;;;;;5034333;28;20271;-56
2022/10/21 07:22:26;;;;;;;;;;;17.70;1.00;;;;;;5033632;28;20365;-55
2022/10/21 07:24:52;;;;;;;;;;;17.70;1.00;;;;;;5034208;28;19928;-57
2022/10/21 07:27:19;;;;;;;;;;;17.70;1.00;;;;;;5033879;28;19927;-59
2022/10/21 07:29:46;;;;;;;;;;;17.70;1.00;;;;;;5033892;28;19927;-56
2022/10/21 07:32:13;;;;;;;;;;;17.70;1.00;;;;;;5033396;28;20375;-56
2022/10/21 07:34:40;;;;;;;;;;;17.70;1.00;;;;;;5033810;28;20324;-53
2022/10/21 07:37:06;;;;;;;;;;;17.70;1.00;;;;;;5033683;28;19929;-54
2022/10/21 07:39:33;;;;;;;;;;;17.80;1.00;;;;;;5033604;28;19976;-57
2022/10/21 07:42:00;;;;;;;;;;;17.70;1.00;;;;;;5033562;28;19929;-52
2022/10/21 07:44:27;;;;;;;;;;;17.70;1.00;;;;;;5033321;28;19953;-55
2022/10/21 07:46:54;;;;;;;;;;;17.70;1.00;;;;;;5033588;28;19921;-55
2022/10/21 07:49:22;;;;;;;;;;;17.70;1.00;;;;;;5033799;28;20354;-56
2022/10/21 07:51:52;;;;;;;;;;;17.70;1.00;;;;;;5033429;28;19925;-51
2022/10/21 07:54:19;;;;;;;;;;;17.70;1.00;;;;;;5033307;28;19921;-52
2022/10/21 07:56:47;;;;;;;;;;;17.70;1.00;;;;;;5033625;28;19921;-54
2022/10/21 07:59:15;;;;;;;;;;;17.70;1.00;;;;;;5033807;28;20030;-52
2022/10/21 08:01:46;;;;;;;;;;;17.70;1.00;;;;;;5033170;28;19924;-54
2022/10/21 08:04:19;;;;;;;;;;;17.70;1.00;;;;;;5033357;28;19924;-54
2022/10/21 08:06:46;;;;;;;;;;;17.70;1.00;;;;;;5033340;28;20349;-50
2022/10/21 08:09:13;;;;;;;;;;;17.70;1.00;;;;;;5033760;28;19921;-52
2022/10/21 08:11:40;;;;;;;;;;;17.70;1.00;;;;;;5032940;28;19928;-50
2022/10/21 08:14:08;;;;;;;;;;;17.70;1.00;;;;;;5033190;28;19926;-50
2022/10/21 08:16:35;;;;;;;;;;;17.70;1.00;;;;;;5033286;28;19929;-45
2022/10/21 08:19:03;;;;;;;;;;;17.70;1.00;;;;;;5033250;28;19925;-53
2022/10/21 08:21:30;;;;;;;;;;;17.70;1.00;;;;;;5033129;28;19928;-55
2022/10/21 08:23:57;;;;;;;;;;;17.70;1.00;;;;;;5032893;28;19974;-52
2022/10/21 08:26:24;;;;;;;;;;;17.70;1.00;;;;;;5033032;28;19975;-48
2022/10/21 08:28:51;;;;;;;;;;;17.70;1.00;;;;;;5033084;28;20345;-50
2022/10/21 08:31:19;;;;;;;;;;;17.80;1.00;;;;;;5033152;28;19968;-46
2022/10/21 08:33:45;;;;;;;;;;;17.70;1.00;;;;;;5032769;28;19928;-47
2022/10/21 08:36:16;;;;;;;;;;;17.80;1.00;;;;;;5033062;28;19927;-48
2022/10/21 08:38:42;;;;;;;;;;;17.80;1.00;;;;;;5033069;28;20279;-50
2022/10/21 08:41:26;;;;;;;;;;;17.80;1.00;;;;;;5033132;28;19921;-51
2022/10/21 08:43:58;;;;;;;;;;;17.80;1.00;;;;;;5032575;28;19928;-54
2022/10/21 08:46:27;;;;;;;;;;;17.80;1.00;;;;;;5033066;28;19921;-48
2022/10/21 08:49:10;;;;;;;;;;;17.80;1.00;;;;;;5032834;28;19921;-47
2022/10/21 08:51:40;;;;;;;;;;;17.80;1.00;;;;;;5032673;28;19928;-43
2022/10/21 08:54:12;;;;;;;;;;;17.80;1.00;;;;;;5032913;28;19964;-48
2022/10/21 08:56:39;;;;;;;;;;;17.80;1.00;;;;;;5032851;28;19927;-50
2022/10/21 08:59:19;;;;;;;;;;;17.80;1.00;;;;;;5032897;28;19921;-50
2022/10/21 09:01:50;;;;;;;;;;;17.80;1.00;;;;;;5032402;28;19921;-52
2022/10/21 09:04:33;;;;;;;;;;;17.80;1.00;;;;;;5032655;28;20290;-53
2022/10/21 09:07:08;;;;;;;;;;;17.80;1.00;;;;;;5032849;28;19927;-49
2022/10/21 09:09:35;;;;;;;;;;;17.80;1.00;;;;;;5032811;28;19933;-55
2022/10/21 09:12:22;;;;;;;;;;;17.70;1.00;;;;;;5032487;28;19925;-53
2022/10/21 09:14:53;;;;;;;;;;;17.80;1.00;;;;;;5036444;28;19921;-53
2022/10/21 09:17:20;;;;;;;;;;;17.80;1.00;;;;;;5036433;28;19928;-50
2022/10/21 09:19:47;;;;;;;;;;;17.80;1.00;;;;;;5036523;28;20378;-56
2022/10/21 09:22:39;;;;;;;;;;;17.80;1.00;;;;;;5036322;28;19925;-50
2022/10/21 09:25:20;;;;;;;;;;;17.70;1.00;;;;;;5012693;28;20302;-53
2022/10/21 09:27:47;;;;;;;;;;;17.80;1.00;;;;;;5036308;28;19967;-56
2022/10/21 09:30:22;;;;;;;;;;;17.70;1.00;;;;;;5036353;28;20371;-54
2022/10/21 09:32:50;;;;;;;;;;;17.70;1.00;;;;;;5035592;28;19935;-55
2022/10/21 09:35:21;;;;;;;;;;;17.70;1.00;;;;;;5035936;28;20341;-54
2022/10/21 09:38:00;;;;;;;;;;;17.80;1.00;;;;;;5036012;28;19932;-52
2022/10/21 09:40:28;;;;;;;;;;;17.80;1.00;;;;;;5036164;28;20008;-51
2022/10/21 09:43:00;;;;;;;;;;;17.80;1.00;;;;;;5035642;28;19929;-49
2022/10/21 09:45:37;;;;;;;;;;;17.80;1.00;;;;;;5035932;28;19920;-52
2022/10/21 09:48:16;;;;;;;;;;;17.80;1.00;;;;;;5035905;28;19921;-49
2022/10/21 09:51:06;;;;;;;;;;;17.80;1.00;;;;;;5036291;28;19920;-52
2022/10/21 09:53:36;;;;;;;;;;;17.80;1.00;;;;;;5030025;28;20397;-53
2022/10/21 09:56:05;;;;;;;;;;;17.70;1.00;;;;;;5035968;28;19944;-53
2022/10/21 09:58:35;;;;;;;;;;;17.80;1.00;;;;;;5035670;28;19928;-51
2022/10/21 10:01:02;;;;;;;;;;;17.80;1.00;;;;;;5035588;28;19928;-49
2022/10/21 10:03:36;;;;;;;;;;;17.80;1.00;;;;;;5035255;28;19963;-53
2022/10/21 10:06:04;;;;;;;;;;;17.80;1.00;;;;;;5035560;28;19927;-51
2022/10/21 10:08:30;;;;;;;;;;;17.80;1.00;;;;;;5035461;28;20266;-52
2022/10/21 10:11:01;;;;;;;;;;;17.80;1.00;;;;;;5035609;28;19924;-50
2022/10/21 10:13:30;;;;;;;;;;;17.80;1.00;;;;;;5035234;28;20377;-52
2022/10/21 10:16:12;;;;;;;;;;;17.80;1.00;;;;;;5034013;28;19928;-53
2022/10/21 10:18:39;;;;;;;;;;;17.80;1.00;;;;;;5035350;28;19978;-52
2022/10/21 10:21:14;;;;;;;;;;;17.80;1.00;;;;;;5035634;28;19928;-53
2022/10/21 10:23:45;;;;;;;;;;;17.80;1.00;;;;;;5034772;28;19927;-55
2022/10/21 10:26:17;;;;;;;;;;;17.80;1.00;;;;;;5035345;28;19921;-54
2022/10/21 10:28:48;;;;;;;;;;;17.80;1.00;;;;;;5035241;28;19921;-53
2022/10/21 10:31:21;;;;;;;;;;;17.80;1.00;;;;;;5034966;28;20394;-58
2022/10/21 10:33:53;;;;;;;;;;;17.80;1.00;;;;;;5034727;28;19924;-53
2022/10/21 10:36:29;;;;;;;;;;;17.80;1.00;;;;;;5035241;28;19964;-56
2022/10/21 10:38:57;;;;;;;;;;;17.80;1.00;;;;;;5034923;28;19928;-54
2022/10/21 10:41:45;;;;;;;;;;;17.80;1.00;;;;;;5034903;28;19920;-52
2022/10/21 10:44:35;;;;;;;;;;;17.80;1.00;;;;;;5034754;28;19928;-55
2022/10/21 10:47:02;;;;;;;;;;;17.80;1.00;;;;;;5029083;28;19921;-52
2022/10/21 10:49:38;;;;;;;;;;;17.80;1.00;;;;;;5034937;28;19920;-52
2022/10/21 10:52:10;;;;;;;;;;;17.90;1.00;;;;;;5034314;28;20389;-55
2022/10/21 10:54:38;;;;;;;;;;;17.90;1.00;;;;;;5034606;28;19921;-53
2022/10/21 10:57:16;;;;;;;;;;;17.90;1.00;;;;;;5034529;28;19967;-54
2022/10/21 10:59:44;;;;;;;;;;;17.90;1.00;;;;;;5034474;28;19921;-57
2022/10/21 11:02:11;;;;;;;;;;;17.90;1.00;;;;;;5034376;28;19951;-56
2022/10/21 11:04:40;;;;;;;;;;;17.90;1.00;;;;;;5034386;28;19924;-57
2022/10/21 11:07:06;;;;;;;;;;;17.90;1.00;;;;;;5034327;28;19921;-54
2022/10/21 11:09:33;;;;;;;;;;;17.90;1.00;;;;;;5034514;28;20375;-52
2022/10/21 11:12:01;;;;;;;;;;;18.00;1.00;;;;;;5033991;28;19921;-54
2022/10/21 11:14:28;;;;;;;;;;;18.00;1.00;;;;;;5034147;28;19928;-56
2022/10/21 11:16:59;;;;;;;;;;;18.00;1.00;;;;;;5034284;28;20310;-50
2022/10/21 11:19:39;;;;;;;;;;;18.00;1.00;;;;;;5034415;28;19928;-52
2022/10/21 11:22:11;;;;;;;;;;;18.00;1.00;;;;;;5033665;28;19936;-49
2022/10/21 11:24:38;;;;;;;;;;;18.00;1.00;;;;;;5033942;28;19959;-55
2022/10/21 11:27:25;;;;;;;;;;;18.10;1.00;;;;;;5034168;28;19964;-53
2022/10/21 11:30:04;;;;;;;;;;;18.10;1.00;;;;;;5034190;28;19921;-53
2022/10/21 11:32:31;;;;;;;;;;;18.10;1.00;;;;;;5033612;28;19921;-50
2022/10/21 11:35:01;;;;;;;;;;;18.10;1.00;;;;;;5033603;28;20298;-54
2022/10/21 11:37:37;;;;;;;;;;;18.10;1.00;;;;;;5033691;28;20291;-49
2022/10/21 11:40:23;;;;;;;;;;;18.10;1.00;;;;;;5033910;28;19928;-49
2022/10/21 11:42:51;;;;;;;;;;;18.10;1.00;;;;;;5033567;28;19928;-51
2022/10/21 11:45:36;;;;;;;;;;;18.10;1.00;;;;;;5033721;28;19951;-52
2022/10/21 11:48:15;;;;;;;;;;;18.10;1.00;;;;;;5033720;28;19920;-52
2022/10/21 11:50:48;;;;;;;;;;;18.10;1.00;;;;;;5033816;28;19928;-51
2022/10/21 11:53:32;;;;;;;;;;;18.10;1.00;;;;;;5033128;28;19925;-51
2022/10/21 11:56:05;;;;;;;;;;;18.10;1.00;;;;;;5033542;28;19925;-53
2022/10/21 11:58:32;;;;;;;;;;;18.10;1.00;;;;;;5033625;28;19921;-50
2022/10/21 12:01:04;;;;;;;;;;;18.10;1.00;;;;;;5033521;28;19929;-50
2022/10/21 12:03:31;;;;;;;;;;;18.10;1.00;;;;;;5033001;28;19975;-50
2022/10/21 12:06:11;;;;;;;;;;;18.10;1.00;;;;;;5033340;28;19921;-57
2022/10/21 12:08:44;;;;;;;;;;;18.10;1.00;;;;;;5033444;28;20023;-53
2022/10/21 12:11:18;;;;;;;;;;;18.10;1.00;;;;;;5033358;28;20375;-50
2022/10/21 12:13:55;;;;;;;;;;;18.10;1.00;;;;;;5032885;28;19999;-52
2022/10/21 12:16:24;;;;;;;;;;;18.10;1.00;;;;;;5033167;28;19921;-51
2022/10/21 12:18:52;;;;;;;;;;;18.10;1.00;;;;;;5032969;28;20333;-55
2022/10/21 12:21:22;;;;;;;;;;;18.10;1.00;;;;;;5033113;28;19955;-52
2022/10/21 12:23:51;;;;;;;;;;;18.10;1.00;;;;;;5033006;28;19921;-54
2022/10/21 12:26:35;;;;;;;;;;;18.10;1.00;;;;;;5033500;28;20295;-55
2022/10/21 12:29:05;;;;;;;;;;;18.20;1.00;;;;;;5033212;28;19921;-54
2022/10/21 12:31:46;;;;;;;;;;;18.20;1.00;;;;;;5033202;28;20387;-53
2022/10/21 12:34:13;;;;;;;;;;;18.20;1.00;;;;;;5032973;28;20290;-54
2022/10/21 12:36:43;;;;;;;;;;;18.20;1.00;;;;;;5033041;28;19921;-49
2022/10/21 12:39:15;;;;;;;;;;;18.20;1.00;;;;;;5033073;28;19925;-51
2022/10/21 12:41:42;;;;;;;;;;;18.20;1.00;;;;;;5032747;28;19928;-57
2022/10/21 12:44:12;;;;;;;;;;;18.20;1.00;;;;;;5033319;28;19925;-50
2022/10/21 12:46:39;;;;;;;;;;;18.20;1.00;;;;;;5033029;28;19925;-53
2022/10/21 12:49:06;;;;;;;;;;;18.20;1.00;;;;;;5036051;28;19921;-55
2022/10/21 12:51:34;;;;;;;;;;;18.20;1.00;;;;;;5036897;28;19928;-55
2022/10/21 12:54:01;;;;;;;;;;;18.20;1.00;;;;;;5036716;28;19921;-58
2022/10/21 12:56:32;;;;;;;;;;;18.20;1.00;;;;;;5036795;28;19927;-56
2022/10/21 12:59:04;;;;;;;;;;;18.20;1.00;;;;;;5036879;28;19921;-57
2022/10/21 13:01:42;;;;;;;;;;;18.20;1.00;;;;;;5036699;28;19920;-58
2022/10/21 13:04:41;;;;;;;;;;;18.20;1.00;;;;;;5036694;28;19979;-53
2022/10/21 13:07:14;;;;;;;;;;;18.20;1.00;;;;;;5014070;28;19929;-53
2022/10/21 13:09:50;;;;;;;;;;;18.20;1.00;;;;;;5036707;28;20011;-55
2022/10/21 13:12:26;;;;;;;;;;;18.20;1.00;;;;;;5036191;28;19928;-56
2022/10/21 13:14:56;;;;;;;;;;;18.20;1.00;;;;;;5036753;28;19928;-55
2022/10/21 13:17:27;;;;;;;;;;;18.20;1.00;;;;;;5036441;28;20418;-55
2022/10/21 13:19:55;;;;;;;;;;;18.20;1.00;;;;;;5036474;28;19928;-53
2022/10/21 13:22:32;;;;;;;;;;;18.20;1.00;;;;;;5036190;28;19928;-56
2022/10/21 13:25:17;;;;;;;;;;;18.20;1.00;;;;;;5036165;28;20133;-52
2022/10/21 13:27:47;;;;;;;;;;;18.20;1.00;;;;;;5036282;28;19967;-48
2022/10/21 13:30:32;;;;;;;;;;;18.20;1.00;;;;;;5036164;28;20367;-49
2022/10/21 13:33:03;;;;;;;;;;;18.20;1.00;;;;;;5036012;28;20377;-55
2022/10/21 13:35:32;;;;;;;;;;;18.20;1.00;;;;;;5036134;28;20363;-51
2022/10/21 13:38:03;;;;;;;;;;;18.20;1.00;;;;;;5035960;28;19987;-54
2022/10/21 13:40:43;;;;;;;;;;;18.20;1.00;;;;;;5036135;28;20337;-52
2022/10/21 13:43:14;;;;;;;;;;;18.20;1.00;;;;;;5035561;28;19971;-56
2022/10/21 13:45:50;;;;;;;;;;;18.20;1.00;;;;;;5035874;28;19921;-50
2022/10/21 13:48:19;;;;;;;;;;;18.20;1.00;;;;;;5036071;28;20393;-52
2022/10/21 13:50:46;;;;;;;;;;;18.20;1.00;;;;;;5035771;28;19921;-53
2022/10/21 13:53:16;;;;;;;;;;;18.20;1.00;;;;;;5035591;28;19929;-51
2022/10/21 13:55:56;;;;;;;;;;;18.20;1.00;;;;;;5035140;28;19952;-52
2022/10/21 13:58:23;;;;;;;;;;;18.20;1.00;;;;;;5039616;28;19960;-55
2022/10/21 14:00:51;;;;;;;;;;;18.20;1.00;;;;;;5055750;28;20286;-57
2022/10/21 14:03:25;;;;;;;;;;;18.20;1.00;;;;;;5031787;28;19927;-55
2022/10/21 14:05:55;;;;;;;;;;;18.20;1.00;;;;;;5032820;28;20374;-56
2022/10/21 14:08:30;;;;;;;;;;;18.20;1.00;;;;;;5035667;28;19920;-50
2022/10/21 14:10:58;;;;;;;;;;;18.30;1.00;;;;;;5035759;28;19943;-50
2022/10/21 14:13:27;;;;;;;;;;;18.30;1.00;;;;;;5034927;28;19921;-49
2022/10/21 14:15:54;;;;;;;;;;;18.40;1.00;;;;;;5034286;28;19921;-53
2022/10/21 14:18:44;;;;;;;;;;;18.40;1.00;;;;;;5034273;28;19949;-54
2022/10/21 14:21:17;;;;;;;;;;;18.40;1.00;;;;;;5035485;28;19928;-53
2022/10/21 14:23:45;;;;;;;;;;;18.40;1.00;;;;;;5034755;28;20028;-53
2022/10/21 14:26:12;;;;;;;;;;;18.40;1.00;;;;;;5035245;28;19975;-54
2022/10/21 14:28:39;;;;;;;;;;;18.40;1.00;;;;;;5035096;28;19921;-50
2022/10/21 14:31:07;;;;;;;;;;;18.40;1.00;;;;;;5035066;28;19970;-51
2022/10/21 14:33:41;;;;;;;;;;;18.50;1.00;;;;;;5034716;28;19921;-55
2022/10/21 14:36:08;;;;;;;;;;;18.50;1.00;;;;;;5035075;28;19982;-53
2022/10/21 14:38:39;;;;;;;;;;;18.50;1.00;;;;;;5034551;28;19932;-52
2022/10/21 14:41:11;;;;;;;;;;;18.50;1.00;;;;;;5035317;28;20357;-51
2022/10/21 14:43:39;;;;;;;;;;;18.50;1.00;;;;;;5030275;28;19963;-51
2022/10/21 14:46:08;;;;;;;;;;;18.50;1.00;;;;;;5025870;28;19944;-53
2022/10/21 14:48:37;;;;;;;;;;;18.50;1.00;;;;;;5024251;28;19925;-50